Terminal Aerodrome Forecast
Issued by NWS

Home | Current Version | Previous Version | Text Only | Print | Product List | Glossary On
Versions: 1 2 3 4 5 6 7 8 9 10 11 12 13 14 15 16 17 18
000
FTUS42 KGSP 232300
TAFAND
TAF
KAND 232322Z 2400/2424 24005KT P6SM SCT070
     FM240700 24004KT P6SM BKN070
     FM241500 25009KT P6SM VCSH BKN050
     FM241800 25010KT P6SM -SHRA VCTS BKN050CB PROB30 2419/2423 4SM
      TSRA BKN040CB=

USA.gov is the U.S. government's official web portal to all federal, state and local government web resources and services.